Time;durP1;ratioP1;P1;durP2;ratioP2;P2;SDS_P1;SDS_P2;PMS_P1;PMS_P2;Temp;Humidity;BMP_temperature;BMP_pressure;BME280_temperature;BME280_humidity;BME280_pressure;Samples;Min_cycle;Max_cycle;Signal;HPM_P1;HPM_P2
2022/09/27 00:02:16;;;;;;;9.73;0.70;;;9.70;99.90;;;;;;5073649;28;20049;-32
2022/09/27 00:04:41;;;;;;;5.00;0.55;;;9.80;99.90;;;;;;5073861;28;20040;-32
2022/09/27 00:07:09;;;;;;;7.75;0.85;;;9.30;99.90;;;;;;5072637;28;20392;-34
2022/09/27 00:09:35;;;;;;;9.55;0.80;;;9.20;99.90;;;;;;5073830;28;20052;-32
2022/09/27 00:12:00;;;;;;;7.85;0.52;;;9.20;99.90;;;;;;5073773;28;20049;-33
2022/09/27 00:14:26;;;;;;;8.27;0.65;;;9.70;99.90;;;;;;5073783;28;20044;-32
2022/09/27 00:16:52;;;;;;;5.93;0.70;;;9.30;99.90;;;;;;5073688;28;20458;-32
2022/09/27 00:19:20;;;;;;;10.90;0.47;;;8.80;99.90;;;;;;5073733;28;20045;-32
2022/09/27 00:21:47;;;;;;;9.88;1.02;;;9.30;99.90;;;;;;5073725;28;20044;-32
2022/09/27 00:24:18;;;;;;;8.88;1.00;;;9.40;99.90;;;;;;5073688;28;20044;-32
2022/09/27 00:26:45;;;;;;;9.60;0.50;;;8.80;99.90;;;;;;5073734;28;20070;-33
2022/09/27 00:29:12;;;;;;;4.80;0.55;;;8.70;99.90;;;;;;5073609;28;20059;-32
2022/09/27 00:31:38;;;;;;;3.00;0.82;;;8.50;99.90;;;;;;5072369;28;20486;-33
2022/09/27 00:34:06;;;;;;;4.70;0.60;;;8.60;99.90;;;;;;5073669;28;20052;-33
2022/09/27 00:36:33;;;;;;;2.80;0.40;;;9.00;99.90;;;;;;5073461;28;20048;-32
2022/09/27 00:39:00;;;;;;;4.93;0.43;;;8.20;99.90;;;;;;5074074;28;20049;-33
2022/09/27 00:41:34;;;;;;;8.00;0.63;;;8.90;99.90;;;;;;5073785;28;20040;-34
2022/09/27 00:44:27;;;;;;;6.78;0.88;;;8.80;99.90;;;;;;5073606;28;20052;-32
2022/09/27 00:47:07;;;;;;;5.25;0.70;;;8.20;99.90;;;;;;5074769;28;20095;-33
2022/09/27 00:50:11;;;;;;;9.88;0.85;;;9.10;99.90;;;;;;5078135;28;20098;-32
2022/09/27 00:53:07;;;;;;;8.27;1.17;;;8.60;99.90;;;;;;5077387;28;20060;-32
2022/09/27 00:55:42;;;;;;;8.40;0.82;;;9.40;99.90;;;;;;5077329;28;20055;-32
2022/09/27 00:58:11;;;;;;;6.97;1.60;;;8.70;99.90;;;;;;5077047;28;20048;-31
2022/09/27 01:00:42;;;;;;;7.25;1.00;;;9.40;99.90;;;;;;5078161;28;20118;-34
2022/09/27 01:03:11;;;;;;;6.00;1.00;;;9.50;99.90;;;;;;5077340;28;20048;-32
2022/09/27 01:05:38;;;;;;;7.00;0.70;;;9.40;99.90;;;;;;5077189;28;20474;-31
2022/09/27 01:08:04;;;;;;;7.38;0.65;;;9.50;99.90;;;;;;5077691;28;20047;-32
2022/09/27 01:10:39;;;;;;;7.18;0.50;;;9.30;99.90;;;;;;5077927;28;20135;-32
2022/09/27 01:13:34;;;;;;;6.95;0.63;;;9.30;99.90;;;;;;5077129;28;20052;-32
2022/09/27 01:16:13;;;;;;;2.65;1.30;;;9.50;99.90;;;;;;5067542;28;20096;-31
2022/09/27 01:19:19;;;;;;;5.30;0.70;;;9.20;99.90;;;;;;5077490;28;20037;-30
2022/09/27 01:21:50;;;;;;;6.10;0.60;;;9.60;99.90;;;;;;5075976;28;20074;-31
2022/09/27 01:24:22;;;;;;;3.33;0.60;;;9.40;99.90;;;;;;5077165;28;20048;-32
2022/09/27 01:27:11;;;;;;;4.07;0.75;;;9.00;99.90;;;;;;5076827;28;20059;-31
2022/09/27 01:29:55;;;;;;;7.03;0.70;;;9.50;99.90;;;;;;5076815;28;20049;-32
2022/09/27 01:33:06;;;;;;;4.90;0.80;;;9.10;99.90;;;;;;5077032;28;20048;-32
2022/09/27 01:35:51;;;;;;;8.57;0.60;;;9.30;99.90;;;;;;5059869;28;20110;-30
2022/09/27 01:38:25;;;;;;;3.50;0.50;;;9.40;99.90;;;;;;5076781;28;20055;-32
2022/09/27 01:41:18;;;;;;;4.22;0.43;;;9.50;99.90;;;;;;5076880;28;20182;-32
2022/09/27 01:43:51;;;;;;;5.55;1.08;;;9.50;99.90;;;;;;5076552;28;20048;-33
2022/09/27 01:46:22;;;;;;;3.38;0.15;;;9.50;99.90;;;;;;5076545;28;20056;-32
2022/09/27 01:48:50;;;;;;;3.75;0.45;;;9.40;99.90;;;;;;5077273;28;20068;-31
2022/09/27 01:51:23;;;;;;;5.30;0.93;;;9.30;99.90;;;;;;5076249;28;20152;-31
2022/09/27 01:54:01;;;;;;;6.22;0.50;;;8.90;99.90;;;;;;5076082;28;20486;-30
2022/09/27 01:56:40;;;;;;;7.10;0.77;;;9.30;99.90;;;;;;5076305;28;20048;-31
2022/09/27 01:59:21;;;;;;;2.90;0.10;;;8.80;99.90;;;;;;5076157;28;20390;-31
2022/09/27 02:01:50;;;;;;;4.28;0.40;;;9.20;99.90;;;;;;5076215;28;20053;-30
2022/09/27 02:04:23;;;;;;;8.30;0.90;;;9.20;99.90;;;;;;5076963;28;20508;-30
2022/09/27 02:06:58;;;;;;;3.38;0.60;;;9.10;99.90;;;;;;5076763;28;20063;-29
2022/09/27 02:09:47;;;;;;;5.30;0.60;;;9.20;99.90;;;;;;5076622;28;20048;-29
2022/09/27 02:12:16;;;;;;;7.47;0.88;;;9.10;99.90;;;;;;5075600;28;20131;-30
2022/09/27 02:15:03;;;;;;;6.20;0.60;;;9.20;99.90;;;;;;5075949;28;20037;-29
2022/09/27 02:17:49;;;;;;;9.05;0.50;;;9.20;99.90;;;;;;5076206;28;20041;-29
2022/09/27 02:20:43;;;;;;;5.60;0.88;;;9.30;99.90;;;;;;5076752;28;20123;-28
2022/09/27 02:23:33;;;;;;;5.43;0.80;;;9.00;99.90;;;;;;5076122;28;20049;-28
2022/09/27 02:26:05;;;;;;;7.32;0.50;;;9.40;99.90;;;;;;5075070;28;20055;-29
2022/09/27 02:28:36;;;;;;;6.80;0.65;;;8.90;99.90;;;;;;5076568;28;20098;-29
2022/09/27 02:31:02;;;;;;;4.97;0.32;;;9.20;99.90;;;;;;5075613;28;20048;-29
2022/09/27 02:33:45;;;;;;;3.95;0.47;;;8.60;99.90;;;;;;5076167;28;20177;-29
2022/09/27 02:36:11;;;;;;;9.32;0.50;;;8.50;99.90;;;;;;5058199;28;20064;-29
2022/09/27 02:38:37;;;;;;;11.13;1.02;;;8.60;99.90;;;;;;5074189;28;20127;-29
2022/09/27 02:41:03;;;;;;;6.40;0.65;;;8.50;99.90;;;;;;5075493;28;20041;-29
2022/09/27 02:43:32;;;;;;;4.22;0.60;;;9.10;99.90;;;;;;5075659;28;20079;-29
2022/09/27 02:46:06;;;;;;;4.35;0.77;;;9.30;99.90;;;;;;5075641;28;20398;-29
2022/09/27 02:49:09;;;;;;;5.45;0.75;;;9.50;99.90;;;;;;5074631;28;20057;-29
2022/09/27 02:52:12;;;;;;;6.60;0.90;;;9.20;99.90;;;;;;5070595;28;20135;-28
2022/09/27 02:55:02;;;;;;;5.55;0.70;;;9.00;99.90;;;;;;5063117;28;20093;-28
2022/09/27 02:57:36;;;;;;;6.93;1.05;;;9.70;99.90;;;;;;5064824;28;20045;-29
2022/09/27 03:00:14;;;;;;;7.68;0.98;;;9.40;99.90;;;;;;5075036;28;20131;-31
2022/09/27 03:03:21;;;;;;;5.00;0.85;;;8.90;99.90;;;;;;5074740;28;20505;-30
2022/09/27 03:06:05;;;;;;;5.78;0.60;;;9.20;99.90;;;;;;5074883;28;20048;-29
2022/09/27 03:08:31;;;;;;;10.10;0.88;;;9.40;99.90;;;;;;5074822;28;20051;-30
2022/09/27 03:10:57;;;;;;;6.90;0.40;;;8.60;99.90;;;;;;5075094;28;20045;-30
2022/09/27 03:13:22;;;;;;;7.28;0.80;;;8.70;99.90;;;;;;5074818;28;20429;-29
2022/09/27 03:15:48;;;;;;;5.15;1.42;;;8.60;99.90;;;;;;5075542;28;20046;-30
2022/09/27 03:18:14;;;;;;;3.85;0.68;;;9.00;99.90;;;;;;5073963;28;20477;-28
2022/09/27 03:20:39;;;;;;;6.95;0.68;;;8.40;99.90;;;;;;5074595;28;20131;-28
2022/09/27 03:23:05;;;;;;;6.13;0.50;;;8.80;99.90;;;;;;5074572;28;20161;-29
2022/09/27 03:25:31;;;;;;;6.65;0.60;;;8.90;99.90;;;;;;5074506;28;20098;-30
2022/09/27 03:27:56;;;;;;;8.07;1.13;;;8.50;99.90;;;;;;5056689;28;20041;-29
2022/09/27 03:30:22;;;;;;;5.85;0.95;;;8.70;99.90;;;;;;5057680;28;20457;-30
2022/09/27 03:32:48;;;;;;;9.77;1.35;;;8.30;99.90;;;;;;5074164;28;20080;-30
2022/09/27 03:35:14;;;;;;;5.95;0.73;;;8.60;99.90;;;;;;5073798;28;20364;-30
2022/09/27 03:37:40;;;;;;;6.03;1.08;;;7.40;99.90;;;;;;5074173;28;20487;-29
2022/09/27 03:40:07;;;;;;;3.97;0.60;;;9.00;99.90;;;;;;5074097;28;20087;-30
2022/09/27 03:42:33;;;;;;;11.80;1.40;;;8.70;99.90;;;;;;5072971;28;20044;-29
2022/09/27 03:44:59;;;;;;;8.48;1.10;;;8.90;99.90;;;;;;5074185;28;20052;-29
2022/09/27 03:47:25;;;;;;;6.55;1.30;;;8.70;99.90;;;;;;5072939;28;20485;-29
2022/09/27 03:49:50;;;;;;;16.00;1.65;;;8.90;99.90;;;;;;5072913;28;20047;-29
2022/09/27 03:52:17;;;;;;;7.53;1.13;;;8.50;99.90;;;;;;5073976;28;20052;-29
2022/09/27 03:54:43;;;;;;;7.30;1.15;;;8.90;99.90;;;;;;5073913;28;20396;-29
2022/09/27 03:57:09;;;;;;;10.48;1.42;;;8.50;99.90;;;;;;5073989;28;20040;-28
2022/09/27 03:59:35;;;;;;;3.00;0.98;;;8.80;99.90;;;;;;5073968;28;20040;-28
2022/09/27 04:02:01;;;;;;;11.43;1.08;;;8.60;99.90;;;;;;5072694;28;20048;-29
2022/09/27 04:04:26;;;;;;;4.65;0.63;;;9.10;99.90;;;;;;5073930;28;20193;-28
2022/09/27 04:06:52;;;;;;;6.55;0.98;;;8.80;99.90;;;;;;5072903;28;20127;-29
2022/09/27 04:09:17;;;;;;;6.18;0.70;;;9.20;99.90;;;;;;5072680;28;20040;-30
2022/09/27 04:11:43;;;;;;;6.88;0.90;;;8.50;99.90;;;;;;5072904;28;20142;-28
2022/09/27 04:14:11;;;;;;;7.82;0.80;;;8.40;99.90;;;;;;5073765;28;20084;-28
2022/09/27 04:16:38;;;;;;;6.03;0.73;;;8.50;99.90;;;;;;5072797;28;20044;-28
2022/09/27 04:19:05;;;;;;;4.35;0.75;;;8.60;99.90;;;;;;5072882;28;20049;-29
2022/09/27 04:21:30;;;;;;;7.45;0.82;;;8.40;99.90;;;;;;5073414;28;20056;-28
2022/09/27 04:23:56;;;;;;;7.50;0.73;;;8.90;99.90;;;;;;5074536;28;20049;-29
2022/09/27 04:26:22;;;;;;;5.68;1.17;;;9.10;99.90;;;;;;5073724;28;20557;-28
2022/09/27 04:28:50;;;;;;;4.60;0.63;;;9.10;99.90;;;;;;5073668;28;20521;-29
2022/09/27 04:31:15;;;;;;;8.43;1.08;;;8.70;99.90;;;;;;5073342;28;20464;-28
2022/09/27 04:33:41;;;;;;;6.93;0.68;;;8.60;99.90;;;;;;5073975;28;20140;-29
2022/09/27 04:36:26;;;;;;;7.97;0.77;;;8.80;99.90;;;;;;5074141;28;20052;-29
2022/09/27 04:39:01;;;;;;;8.70;1.15;;;9.10;99.90;;;;;;5073515;28;20044;-28
2022/09/27 04:41:27;;;;;;;11.30;0.90;;;8.70;99.90;;;;;;5073614;28;20040;-29
2022/09/27 04:44:00;;;;;;;6.57;1.27;;;8.70;99.90;;;;;;5074319;28;20084;-28
2022/09/27 04:46:30;;;;;;;4.73;0.57;;;8.70;99.90;;;;;;5072556;28;20044;-29
2022/09/27 04:48:57;;;;;;;4.57;0.90;;;9.00;99.90;;;;;;5072369;28;20055;-28
2022/09/27 04:51:23;;;;;;;5.70;1.23;;;8.60;99.90;;;;;;5073315;28;20047;-28
2022/09/27 04:53:49;;;;;;;8.27;0.90;;;8.80;99.90;;;;;;5073411;28;20041;-28
2022/09/27 04:56:14;;;;;;;5.80;0.70;;;9.00;99.90;;;;;;5073663;28;20502;-28
2022/09/27 04:58:40;;;;;;;6.80;0.90;;;8.50;99.90;;;;;;5055974;28;20112;-27
2022/09/27 05:01:08;;;;;;;8.65;1.08;;;8.50;99.90;;;;;;5072371;28;20048;-29
2022/09/27 05:03:34;;;;;;;6.90;0.80;;;8.50;99.90;;;;;;5072108;28;20479;-29
2022/09/27 05:06:00;;;;;;;6.72;0.63;;;8.70;99.90;;;;;;5055295;28;20052;-28
2022/09/27 05:08:26;;;;;;;9.07;0.90;;;8.50;99.90;;;;;;5073291;28;20132;-29
2022/09/27 05:10:53;;;;;;;6.95;1.60;;;8.80;99.90;;;;;;5072289;28;20123;-27
2022/09/27 05:13:19;;;;;;;5.97;0.82;;;8.60;99.90;;;;;;5071695;28;20055;-28
2022/09/27 05:15:45;;;;;;;7.97;0.75;;;8.60;99.90;;;;;;5073204;28;20418;-29
2022/09/27 05:18:10;;;;;;;4.13;0.57;;;8.30;99.90;;;;;;5056123;28;20048;-29
2022/09/27 05:20:36;;;;;;;3.05;0.40;;;8.40;99.90;;;;;;5073155;28;20048;-29
2022/09/27 05:23:03;;;;;;;2.88;0.40;;;8.30;99.90;;;;;;5073134;28;20052;-29
2022/09/27 05:25:30;;;;;;;6.43;0.43;;;8.50;99.90;;;;;;5073068;28;20056;-28
2022/09/27 05:27:57;;;;;;;4.18;0.52;;;8.20;99.90;;;;;;5073067;28;20044;-28
2022/09/27 05:30:23;;;;;;;3.05;0.47;;;8.60;99.90;;;;;;5073648;28;20045;-28
2022/09/27 05:32:50;;;;;;;6.38;0.73;;;8.40;99.90;;;;;;5075336;28;20056;-28
2022/09/27 05:35:19;;;;;;;5.78;1.05;;;8.70;99.90;;;;;;5076717;28;20143;-28
2022/09/27 05:37:57;;;;;;;8.43;0.75;;;8.60;99.90;;;;;;5076552;28;20048;-29
2022/09/27 05:40:24;;;;;;;5.35;1.13;;;8.70;99.90;;;;;;5076596;28;20048;-28
2022/09/27 05:42:53;;;;;;;5.00;0.60;;;8.70;99.90;;;;;;5076829;28;20053;-30
2022/09/27 05:45:21;;;;;;;10.75;1.15;;;8.80;99.90;;;;;;5076496;28;20082;-29
2022/09/27 05:47:57;;;;;;;13.45;1.00;;;8.30;99.90;;;;;;5076419;28;20044;-28
2022/09/27 05:50:26;;;;;;;8.18;0.98;;;8.40;99.90;;;;;;5076441;28;20052;-28
2022/09/27 05:52:53;;;;;;;3.40;0.52;;;8.60;99.90;;;;;;5076878;28;20052;-27
2022/09/27 05:55:19;;;;;;;5.78;0.77;;;8.40;99.90;;;;;;5076283;28;20044;-29
2022/09/27 05:58:12;;;;;;;4.68;1.13;;;8.80;99.90;;;;;;5075189;28;20401;-29
2022/09/27 06:00:38;;;;;;;4.05;0.45;;;8.80;99.90;;;;;;5075980;28;20560;-29
2022/09/27 06:03:05;;;;;;;4.07;0.68;;;8.90;99.90;;;;;;5076209;28;20044;-28
2022/09/27 06:05:35;;;;;;;5.10;1.10;;;8.00;99.90;;;;;;5075162;28;20057;-28
2022/09/27 06:08:03;;;;;;;5.43;0.60;;;9.20;99.90;;;;;;5076102;28;20048;-28
2022/09/27 06:10:30;;;;;;;6.70;0.98;;;8.70;99.90;;;;;;5076063;28;20052;-28
2022/09/27 06:13:05;;;;;;;3.53;0.52;;;8.90;99.90;;;;;;5075970;28;20555;-28
2022/09/27 06:15:32;;;;;;;3.67;0.77;;;8.40;99.90;;;;;;5076612;28;20048;-28
2022/09/27 06:18:04;;;;;;;6.00;0.80;;;8.80;99.90;;;;;;5075923;28;20106;-28
2022/09/27 06:20:30;;;;;;;5.82;0.70;;;8.20;99.90;;;;;;5075931;28;20045;-28
2022/09/27 06:23:03;;;;;;;4.32;0.70;;;8.20;99.90;;;;;;5075836;28;20135;-28
2022/09/27 06:25:29;;;;;;;5.70;0.70;;;8.20;99.90;;;;;;5076662;28;20044;-28
2022/09/27 06:27:54;;;;;;;3.65;0.65;;;8.20;99.90;;;;;;5075757;28;20497;-29
2022/09/27 06:30:20;;;;;;;4.60;0.80;;;8.20;99.90;;;;;;5074559;28;20498;-29
2022/09/27 06:32:46;;;;;;;4.05;0.70;;;8.20;99.90;;;;;;5075389;28;20048;-28
2022/09/27 06:35:12;;;;;;;5.68;0.90;;;9.50;99.90;;;;;;5074459;28;20054;-28
2022/09/27 06:37:37;;;;;;;9.25;1.05;;;9.20;99.90;;;;;;5075461;28;20044;-28
2022/09/27 06:40:03;;;;;;;7.55;0.90;;;8.80;99.90;;;;;;5075209;28;20051;-28
2022/09/27 06:42:29;;;;;;;5.72;0.80;;;8.20;99.90;;;;;;5075352;28;20486;-29
2022/09/27 06:44:55;;;;;;;5.40;0.93;;;10.00;99.90;;;;;;5075365;28;20047;-28
2022/09/27 06:47:22;;;;;;;9.35;0.80;;;9.90;99.90;;;;;;5075411;28;20047;-30
2022/09/27 06:49:48;;;;;;;5.38;0.73;;;7.50;99.90;;;;;;5074209;28;20123;-28
2022/09/27 06:52:14;;;;;;;8.75;0.88;;;7.80;99.90;;;;;;5075175;28;20465;-28
2022/09/27 06:54:39;;;;;;;7.15;1.35;;;8.60;99.90;;;;;;5040459;28;20052;-29
2022/09/27 06:57:05;;;;;;;8.82;0.75;;;7.90;99.90;;;;;;5075079;28;20473;-28
2022/09/27 07:02:15;;;;;;;5.82;0.88;;;9.30;99.90;;;;;;5075096;28;20053;-28
2022/09/27 07:04:42;;;;;;;4.15;0.60;;;7.90;99.90;;;;;;5075056;28;20052;-28
2022/09/27 07:07:08;;;;;;;4.90;0.80;;;10.00;99.90;;;;;;5074918;28;20051;-28
2022/09/27 07:09:33;;;;;;;4.10;1.08;;;7.90;99.90;;;;;;5074868;28;20110;-28
2022/09/27 07:11:59;;;;;;;5.65;0.90;;;7.90;99.90;;;;;;5073698;28;20044;-28
2022/09/27 07:14:25;;;;;;;9.68;1.10;;;10.20;99.90;;;;;;5074777;28;20052;-29
2022/09/27 07:16:51;;;;;;;2.58;0.60;;;8.30;99.90;;;;;;5075183;28;20048;-30
2022/09/27 07:19:17;;;;;;;7.68;1.08;;;8.40;99.90;;;;;;5075255;28;20079;-29
2022/09/27 07:21:43;;;;;;;5.38;0.90;;;9.70;99.90;;;;;;5074628;28;20044;-30
2022/09/27 07:24:08;;;;;;;2.25;0.47;;;9.10;99.90;;;;;;5074627;28;20055;-28
2022/09/27 07:26:34;;;;;;;3.20;0.95;;;9.50;99.90;;;;;;5074130;28;20466;-30
2022/09/27 07:29:00;;;;;;;2.50;0.50;;;9.70;99.90;;;;;;5074780;28;20074;-29
2022/09/27 07:31:28;;;;;;;7.75;0.88;;;10.00;99.90;;;;;;5074704;28;20048;-29
2022/09/27 07:33:54;;;;;;;4.50;0.75;;;9.60;99.90;;;;;;5075186;28;20065;-29
2022/09/27 07:36:20;;;;;;;4.80;0.90;;;8.40;99.90;;;;;;5074348;28;20573;-29
2022/09/27 07:38:46;;;;;;;6.43;0.82;;;9.80;99.90;;;;;;5073610;28;20072;-31
2022/09/27 07:41:13;;;;;;;3.00;0.80;;;9.70;99.90;;;;;;5072763;28;20096;-32
2022/09/27 07:43:40;;;;;;;8.07;0.90;;;9.90;99.90;;;;;;5075064;28;20055;-31
2022/09/27 07:46:06;;;;;;;3.83;0.50;;;8.40;99.90;;;;;;5074480;28;20118;-30
2022/09/27 07:48:33;;;;;;;6.05;0.70;;;8.70;99.90;;;;;;5072940;28;20132;-31
2022/09/27 07:50:59;;;;;;;6.72;0.75;;;8.10;99.90;;;;;;5074606;28;20055;-30
2022/09/27 07:53:24;;;;;;;2.20;0.45;;;8.30;99.90;;;;;;5073678;28;20390;-29
2022/09/27 07:55:54;;;;;;;4.47;0.43;;;9.20;99.90;;;;;;5072842;28;20040;-30
2022/09/27 07:58:20;;;;;;;3.13;0.30;;;8.20;99.90;;;;;;5074201;28;20046;-30
2022/09/27 08:00:46;;;;;;;3.78;0.65;;;8.90;99.90;;;;;;5074000;28;20123;-30
2022/09/27 08:03:14;;;;;;;2.30;0.40;;;8.30;99.90;;;;;;5073924;28;20128;-30
2022/09/27 08:05:42;;;;;;;3.70;0.30;;;8.50;99.90;;;;;;5073954;28;20058;-29
2022/09/27 08:08:07;;;;;;;2.75;0.40;;;10.20;99.90;;;;;;5074189;28;20083;-29
2022/09/27 08:10:34;;;;;;;3.25;1.08;;;10.20;99.90;;;;;;5072695;28;20405;-28
2022/09/27 08:13:04;;;;;;;5.05;0.90;;;10.00;99.90;;;;;;5073796;28;20123;-29
2022/09/27 08:15:31;;;;;;;6.05;0.88;;;9.00;99.90;;;;;;5074674;28;20437;-29
2022/09/27 08:17:57;;;;;;;4.00;0.68;;;9.40;99.90;;;;;;5056762;28;20105;-29
2022/09/27 08:20:23;;;;;;;4.93;0.80;;;9.60;99.90;;;;;;5073777;28;20143;-30
2022/09/27 08:22:49;;;;;;;7.97;1.02;;;10.60;99.90;;;;;;5073768;28;20053;-30
2022/09/27 08:25:14;;;;;;;2.80;0.32;;;10.50;99.90;;;;;;5072570;28;20040;-29
2022/09/27 08:27:41;;;;;;;6.15;0.63;;;9.60;99.90;;;;;;5055777;28;20052;-29
2022/09/27 08:30:07;;;;;;;5.03;0.60;;;10.50;99.90;;;;;;5072723;28;20041;-30
2022/09/27 08:32:33;;;;;;;5.28;0.50;;;10.70;99.90;;;;;;5073387;28;20542;-30
2022/09/27 08:34:59;;;;;;;4.85;0.60;;;10.60;99.90;;;;;;5072980;28;20060;-29
2022/09/27 08:37:25;;;;;;;5.38;0.32;;;10.70;99.90;;;;;;5073587;28;20135;-28
2022/09/27 08:39:51;;;;;;;8.98;0.80;;;9.20;99.90;;;;;;5072565;28;20044;-29
2022/09/27 08:42:40;;;;;;;8.07;0.82;;;10.70;99.90;;;;;;5073806;28;20049;-29
2022/09/27 08:45:17;;;;;;;6.38;0.90;;;9.50;99.90;;;;;;5073581;28;20049;-29
2022/09/27 08:47:55;;;;;;;8.15;1.00;;;10.60;99.90;;;;;;5073827;28;20033;-29
2022/09/27 08:50:26;;;;;;;6.82;1.48;;;10.60;99.90;;;;;;5073475;28;20095;-28
2022/09/27 08:52:55;;;;;;;3.05;0.77;;;11.00;99.90;;;;;;5073888;28;20049;-28
2022/09/27 08:55:41;;;;;;;3.90;1.13;;;11.00;99.90;;;;;;5072445;28;20056;-29
2022/09/27 08:58:40;;;;;;;3.30;0.60;;;11.00;99.90;;;;;;5073370;28;20043;-28
2022/09/27 09:01:12;;;;;;;3.63;0.50;;;9.90;99.90;;;;;;5072239;28;20044;-29
2022/09/27 09:03:45;;;;;;;3.75;0.40;;;10.60;99.90;;;;;;5072737;28;20048;-30
2022/09/27 09:06:26;;;;;;;4.13;0.50;;;11.20;99.90;;;;;;5075841;28;20083;-29
2022/09/27 09:09:10;;;;;;;4.55;0.30;;;11.40;99.90;;;;;;5076010;28;20497;-29
2022/09/27 09:14:45;;;;;;;1.55;0.00;;;10.50;99.90;;;;;;5077043;28;20064;-29
2022/09/27 09:17:18;;;;;;;0.05;0.00;;;10.20;99.90;;;;;;5076902;28;20052;-29
2022/09/27 09:19:57;;;;;;;0.93;0.10;;;10.10;99.90;;;;;;5077065;28;20045;-31
2022/09/27 09:22:47;;;;;;;0.95;0.10;;;10.10;99.90;;;;;;5077266;28;20045;-30
2022/09/27 09:25:50;;;;;;;2.15;0.10;;;10.00;99.90;;;;;;5076924;28;20044;-29
2022/09/27 09:28:33;;;;;;;9.52;0.63;;;10.10;99.90;;;;;;5076909;28;20045;-29
2022/09/27 09:31:31;;;;;;;1.25;0.20;;;9.20;99.90;;;;;;5059526;28;20109;-28
2022/09/27 09:34:25;;;;;;;1.42;0.10;;;10.30;99.90;;;;;;5057263;28;20156;-29
2022/09/27 09:37:20;;;;;;;1.38;0.20;;;9.30;99.90;;;;;;5076646;28;20135;-28
2022/09/27 09:40:18;;;;;;;1.55;0.00;;;9.60;99.90;;;;;;5077278;28;20048;-29
2022/09/27 09:42:51;;;;;;;2.42;0.00;;;10.20;99.90;;;;;;5075369;28;20052;-29
2022/09/27 09:45:31;;;;;;;2.90;0.30;;;9.60;99.90;;;;;;5075469;28;20093;-29
2022/09/27 09:48:29;;;;;;;1.90;0.10;;;10.00;99.90;;;;;;5075590;28;20051;-29
2022/09/27 09:51:00;;;;;;;1.88;0.17;;;9.70;99.90;;;;;;5071046;28;20057;-29
2022/09/27 09:54:06;;;;;;;2.75;0.15;;;10.00;99.90;;;;;;5075527;28;20106;-29
2022/09/27 09:56:37;;;;;;;2.90;0.35;;;10.40;99.90;;;;;;5056846;28;20143;-30
2022/09/27 09:59:17;;;;;;;0.57;0.00;;;10.30;99.90;;;;;;5077148;28;20123;-30
2022/09/27 10:01:45;;;;;;;2.92;0.30;;;10.30;99.90;;;;;;5077144;28;20044;-29
2022/09/27 10:04:19;;;;;;;5.07;1.17;;;10.40;99.90;;;;;;5074999;28;20052;-29
2022/09/27 10:06:46;;;;;;;3.08;0.30;;;11.30;99.90;;;;;;5059389;28;20127;-29
2022/09/27 10:09:15;;;;;;;2.55;0.73;;;10.90;99.90;;;;;;5076378;28;20121;-30
2022/09/27 10:11:43;;;;;;;5.30;0.20;;;10.80;99.90;;;;;;5076045;28;20049;-29
2022/09/27 10:14:12;;;;;;;3.97;0.60;;;10.70;99.90;;;;;;5075093;28;20052;-29
2022/09/27 10:16:41;;;;;;;1.77;0.30;;;11.30;99.90;;;;;;5058204;28;20391;-29
2022/09/27 10:19:08;;;;;;;6.47;0.57;;;11.60;99.90;;;;;;5075471;28;20072;-29
2022/09/27 10:21:40;;;;;;;3.88;0.20;;;11.00;99.90;;;;;;5075883;28;20124;-30
2022/09/27 10:24:13;;;;;;;3.78;0.90;;;10.60;99.90;;;;;;5074802;28;20086;-29
2022/09/27 10:26:42;;;;;;;2.65;0.20;;;10.50;99.90;;;;;;5074605;28;20076;-29
2022/09/27 10:29:23;;;;;;;3.17;0.22;;;10.30;99.90;;;;;;5074750;28;20425;-31
2022/09/27 10:31:49;;;;;;;0.88;0.15;;;10.90;99.90;;;;;;5075798;28;20056;-30
2022/09/27 10:34:25;;;;;;;1.75;0.17;;;10.60;99.90;;;;;;5073742;28;20572;-31
2022/09/27 10:37:03;;;;;;;1.58;0.10;;;10.30;99.90;;;;;;5075541;28;20121;-32
2022/09/27 10:39:29;;;;;;;1.85;0.10;;;10.30;99.90;;;;;;5075617;28;20045;-32
2022/09/27 10:41:54;;;;;;;1.20;0.10;;;10.20;99.90;;;;;;5058195;28;20044;-32
2022/09/27 10:44:30;;;;;;;1.52;0.03;;;9.10;99.90;;;;;;5074855;28;20378;-32
2022/09/27 10:47:06;;;;;;;4.18;0.30;;;9.20;99.90;;;;;;5075992;28;20049;-33
2022/09/27 10:49:36;;;;;;;3.42;0.30;;;9.20;99.90;;;;;;5075971;28;20127;-32
2022/09/27 10:52:09;;;;;;;2.65;0.13;;;8.60;99.90;;;;;;5074036;28;20078;-32
2022/09/27 10:54:38;;;;;;;1.40;0.10;;;9.30;99.90;;;;;;5075290;28;20080;-32
2022/09/27 10:57:13;;;;;;;1.65;0.10;;;8.50;99.90;;;;;;5074132;28;20080;-32
2022/09/27 10:59:45;;;;;;;4.07;0.30;;;9.50;99.90;;;;;;5075176;28;20092;-32
2022/09/27 11:02:31;;;;;;;0.80;0.00;;;9.30;99.90;;;;;;5057547;28;20053;-31
2022/09/27 11:05:14;;;;;;;0.77;0.13;;;9.40;99.90;;;;;;5075047;28;20045;-31
2022/09/27 11:08:18;;;;;;;2.22;0.10;;;9.40;99.90;;;;;;5074954;28;20051;-31
2022/09/27 11:10:58;;;;;;;4.15;0.20;;;9.90;99.90;;;;;;5071667;28;20048;-31
2022/09/27 11:13:24;;;;;;;1.13;0.08;;;9.90;99.90;;;;;;5075468;28;20174;-31
2022/09/27 11:16:07;;;;;;;0.47;0.00;;;9.90;99.90;;;;;;5074824;28;20141;-30
2022/09/27 11:18:51;;;;;;;0.47;0.00;;;10.60;99.90;;;;;;5075510;28;20410;-30
2022/09/27 11:22:05;;;;;;;2.47;0.30;;;10.60;99.90;;;;;;5075408;28;20052;-30
2022/09/27 11:24:56;;;;;;;1.80;0.10;;;11.20;99.90;;;;;;5052633;28;20099;-31
2022/09/27 11:27:39;;;;;;;2.53;0.45;;;11.80;99.90;;;;;;5073700;28;20083;-30
2022/09/27 11:30:13;;;;;;;4.18;0.13;;;12.30;99.90;;;;;;5074839;28;20048;-33
2022/09/27 11:32:59;;;;;;;2.53;0.22;;;12.50;99.90;;;;;;5074909;28;20044;-31
2022/09/27 11:36:00;;;;;;;1.75;0.10;;;12.80;99.90;;;;;;5074838;28;20048;-31
2022/09/27 11:38:43;;;;;;;1.42;0.25;;;12.70;1.00;;;;;;5074443;28;20041;-32
2022/09/27 11:41:28;;;;;;;0.52;0.10;;;12.30;99.90;;;;;;5075227;28;20076;-34
2022/09/27 11:44:20;;;;;;;4.05;0.20;;;11.80;99.90;;;;;;5074319;28;20127;-32
2022/09/27 11:47:04;;;;;;;2.60;0.30;;;10.80;99.90;;;;;;5075076;28;20052;-34
2022/09/27 11:49:45;;;;;;;1.48;0.17;;;10.70;99.90;;;;;;5074475;28;20281;-34
2022/09/27 11:52:19;;;;;;;1.48;0.17;;;11.00;99.90;;;;;;5074110;28;20052;-34
2022/09/27 11:55:11;;;;;;;3.08;0.77;;;11.10;99.90;;;;;;5074692;28;20135;-36
2022/09/27 11:58:10;;;;;;;3.20;0.28;;;11.70;99.90;;;;;;5074845;28;20049;-34
2022/09/27 12:00:45;;;;;;;2.13;0.25;;;11.70;99.90;;;;;;5074332;28;20059;-33
2022/09/27 12:03:10;;;;;;;4.30;0.43;;;11.80;99.90;;;;;;5073346;28;20417;-34
2022/09/27 12:06:07;;;;;;;3.72;0.30;;;11.50;99.90;;;;;;5073968;28;20052;-34
2022/09/27 12:08:38;;;;;;;4.60;0.28;;;11.70;99.90;;;;;;5072984;28;20060;-37
2022/09/27 12:11:45;;;;;;;3.35;0.30;;;11.50;99.90;;;;;;5056515;28;20402;-33
2022/09/27 12:14:28;;;;;;;2.60;0.68;;;11.70;13.60;;;;;;5051419;28;20053;-34
2022/09/27 12:16:56;;;;;;;4.30;0.52;;;11.90;99.90;;;;;;5072659;28;20055;-33
2022/09/27 12:19:27;;;;;;;4.60;0.40;;;12.20;99.90;;;;;;5073746;28;20054;-35
2022/09/27 12:21:56;;;;;;;1.55;0.50;;;12.60;99.90;;;;;;5074433;28;20048;-33
2022/09/27 12:24:23;;;;;;;1.95;0.20;;;12.50;1.00;;;;;;5073719;28;20524;-33
2022/09/27 12:26:57;;;;;;;3.40;0.43;;;12.60;7.90;;;;;;5072429;28;20053;-36
2022/09/27 12:29:32;;;;;;;1.85;0.30;;;12.50;99.90;;;;;;5074043;28;20052;-33
2022/09/27 12:32:16;;;;;;;3.05;0.10;;;12.30;51.40;;;;;;5072667;28;20101;-34
2022/09/27 12:35:03;;;;;;;1.10;0.20;;;12.20;1.00;;;;;;5074010;28;20052;-33
2022/09/27 12:37:41;;;;;;;0.82;0.00;;;12.00;1.00;;;;;;5073574;28;20040;-32
2022/09/27 12:40:20;;;;;;;1.08;0.00;;;11.90;1.00;;;;;;5076940;28;20478;-33
2022/09/27 12:43:26;;;;;;;0.25;0.00;;;11.50;1.00;;;;;;5081117;28;20041;-32
2022/09/27 12:46:32;;;;;;;0.63;0.03;;;11.60;99.90;;;;;;5080236;28;20048;-32
2022/09/27 12:49:18;;;;;;;1.85;0.20;;;11.20;99.90;;;;;;5079052;28;20498;-33
2022/09/27 12:51:51;;;;;;;2.58;0.20;;;11.30;99.90;;;;;;5080098;28;20131;-33
2022/09/27 12:54:36;;;;;;;0.88;0.10;;;11.50;99.90;;;;;;5080028;28;20040;-32
2022/09/27 12:57:31;;;;;;;3.40;0.20;;;11.40;99.90;;;;;;5080257;28;20060;-32
2022/09/27 13:00:20;;;;;;;1.48;0.20;;;11.40;99.90;;;;;;5080095;28;20044;-32
2022/09/27 13:03:10;;;;;;;2.28;0.40;;;11.60;99.90;;;;;;5062725;28;20045;-33
2022/09/27 13:05:35;;;;;;;1.63;0.25;;;11.80;99.90;;;;;;5080115;28;20083;-32
2022/09/27 13:08:35;;;;;;;1.45;0.00;;;11.30;1.00;;;;;;5080839;28;20158;-33
2022/09/27 13:11:03;;;;;;;1.88;0.17;;;11.10;1.00;;;;;;5080558;28;20406;-34
2022/09/27 13:13:30;;;;;;;0.82;0.32;;;10.90;99.90;;;;;;5080782;28;20048;-33
2022/09/27 13:15:59;;;;;;;0.65;0.00;;;10.80;99.90;;;;;;5079292;28;20056;-33
2022/09/27 13:18:36;;;;;;;1.85;0.20;;;10.40;99.90;;;;;;5079852;28;20040;-33
2022/09/27 13:21:06;;;;;;;4.38;0.10;;;10.10;99.90;;;;;;5079234;28;20071;-34
2022/09/27 13:23:38;;;;;;;2.72;0.30;;;9.90;99.90;;;;;;5080134;28;20486;-32
2022/09/27 13:26:21;;;;;;;1.48;0.13;;;9.80;99.90;;;;;;5079794;28;20438;-33
2022/09/27 13:28:47;;;;;;;2.95;0.20;;;9.30;99.90;;;;;;5079880;28;20094;-34
2022/09/27 13:31:16;;;;;;;3.00;0.30;;;9.20;99.90;;;;;;5080010;28;20402;-34
2022/09/27 13:33:49;;;;;;;1.35;0.00;;;9.20;99.90;;;;;;5079839;28;20063;-33